Time;durP1;ratioP1;P1;durP2;ratioP2;P2;SDS_P1;SDS_P2;PMS_P1;PMS_P2;Temp;Humidity;BMP_temperature;BMP_pressure;BME280_temperature;BME280_humidity;BME280_pressure;Samples;Min_cycle;Max_cycle;Signal;HPM_P1;HPM_P2
2022/08/16 00:00:41;;;;;;;1.70;1.60;;;;;;;21.44;55.32;98119.47;5098985;27;43332;-76
2022/08/16 00:03:10;;;;;;;1.73;1.63;;;;;;;21.39;55.14;98118.31;5115629;27;41597;-76
2022/08/16 00:05:38;;;;;;;2.23;1.80;;;;;;;21.26;55.27;98110.88;5135028;27;41004;-76
2022/08/16 00:08:07;;;;;;;2.07;1.80;;;;;;;21.36;55.35;98132.19;5134703;27;41670;-76
2022/08/16 00:10:35;;;;;;;1.73;1.63;;;;;;;21.28;55.42;98124.97;5116279;27;42437;-74
2022/08/16 00:13:06;;;;;;;1.80;1.70;;;;;;;21.28;55.31;98137.63;5116442;27;42120;-75
2022/08/16 00:15:37;;;;;;;1.67;1.53;;;;;;;21.13;55.16;98126.78;5113568;27;41794;-75
2022/08/16 00:18:05;;;;;;;1.70;1.57;;;;;;;21.13;55.36;98133.00;5098923;27;43203;-75
2022/08/16 00:20:34;;;;;;;1.67;1.57;;;;;;;21.17;55.42;98142.38;5116318;27;43735;-75
2022/08/16 00:23:01;;;;;;;2.23;1.97;;;;;;;21.13;55.85;98132.16;5116303;27;41240;-75
2022/08/16 00:25:31;;;;;;;1.93;1.70;;;;;;;21.12;56.35;98131.34;5116472;27;39898;-74
2022/08/16 00:27:59;;;;;;;2.97;1.97;;;;;;;21.10;56.44;98133.38;5099353;27;41928;-75
2022/08/16 00:30:26;;;;;;;2.00;1.80;;;;;;;21.08;56.80;98132.69;5116398;27;44015;-75
2022/08/16 00:32:57;;;;;;;2.13;1.77;;;;;;;21.06;57.16;98142.81;5116412;27;41988;-74
2022/08/16 00:35:31;;;;;;;1.80;1.70;;;;;;;21.04;57.66;98142.16;5116182;27;38856;-74
2022/08/16 00:38:01;;;;;;;2.97;1.90;;;;;;;21.01;57.27;98139.84;5098825;27;41673;-74
2022/08/16 00:40:34;;;;;;;2.60;2.03;;;;;;;20.99;57.43;98136.47;5116170;27;42945;-75
2022/08/16 00:43:06;;;;;;;2.00;1.90;;;;;;;20.88;57.21;98123.44;5116027;27;43895;-74
2022/08/16 00:45:40;;;;;;;1.93;1.73;;;;;;;20.93;58.01;98137.19;5113120;27;40898;-75
2022/08/16 00:48:11;;;;;;;2.27;2.03;;;;;;;20.91;57.17;98139.19;5099185;27;40653;-75
2022/08/16 00:50:41;;;;;;;1.97;1.73;;;;;;;20.88;57.03;98139.59;5112939;27;42635;-75
2022/08/16 00:53:12;;;;;;;1.93;1.80;;;;;;;20.85;57.21;98139.94;5115628;27;42838;-75
2022/08/16 00:55:45;;;;;;;1.63;1.53;;;;;;;20.84;57.24;98140.94;5116187;27;38725;-74
2022/08/16 00:58:13;;;;;;;2.20;2.00;;;;;;;20.74;57.30;98138.50;5115802;27;40766;-75
2022/08/16 01:00:42;;;;;;;2.87;2.13;;;;;;;20.71;57.13;98143.38;5115919;27;43694;-75
2022/08/16 01:03:14;;;;;;;2.53;1.57;;;;;;;20.76;57.59;98158.00;5115375;27;43015;-74
2022/08/16 01:05:42;;;;;;;2.20;1.93;;;;;;;20.76;57.53;98162.53;5112823;27;41019;-75
2022/08/16 01:08:13;;;;;;;2.50;1.90;;;;;;;20.76;57.91;98163.38;5115562;27;41740;-75
2022/08/16 01:10:42;;;;;;;1.80;1.70;;;;;;;20.77;57.73;98156.94;5098427;27;41658;-74
2022/08/16 01:13:14;;;;;;;3.50;2.20;;;;;;;20.75;57.76;98147.41;5098009;27;43318;-75
2022/08/16 01:15:54;;;;;;;2.20;2.00;;;;;;;20.70;58.09;98130.94;5134401;27;40516;-75
2022/08/16 01:18:25;;;;;;;1.70;1.60;;;;;;;20.76;57.90;98162.53;5098432;27;42202;-74
2022/08/16 01:21:00;;;;;;;2.83;2.10;;;;;;;20.72;58.33;98155.81;5112229;27;43727;-74
2022/08/16 01:23:37;;;;;;;1.97;1.53;;;;;;;20.63;58.11;98146.13;5112682;27;42184;-75
2022/08/16 01:26:07;;;;;;;1.50;1.40;;;;;;;20.67;57.91;98163.56;5112527;27;40967;-74
2022/08/16 01:28:35;;;;;;;1.70;1.60;;;;;;;20.66;57.84;98161.91;5114725;27;40368;-74
2022/08/16 01:31:04;;;;;;;2.10;1.90;;;;;;;20.64;57.91;98169.34;5115389;27;43516;-74
2022/08/16 01:33:32;;;;;;;2.47;1.63;;;;;;;20.64;57.61;98163.94;5098127;27;42023;-74
2022/08/16 01:36:03;;;;;;;1.97;1.77;;;;;;;20.59;57.75;98163.63;5115337;27;40920;-75
2022/08/16 01:38:35;;;;;;;2.60;1.97;;;;;;;20.62;57.50;98171.34;5098160;27;41424;-74
2022/08/16 01:41:08;;;;;;;2.40;1.73;;;;;;;20.63;57.85;98167.66;5112124;27;43834;-75
2022/08/16 01:43:39;;;;;;;3.13;1.50;;;;;;;20.62;57.92;98168.66;5098105;27;41156;-74
2022/08/16 01:46:28;;;;;;;1.80;1.70;;;;;;;20.60;57.93;98160.75;5115692;27;39771;-75
2022/08/16 01:48:58;;;;;;;1.63;1.53;;;;;;;20.55;58.04;98159.59;5097902;27;41666;-75
2022/08/16 01:51:27;;;;;;;1.93;1.70;;;;;;;20.50;57.75;98168.22;5097559;27;42730;-75
2022/08/16 01:53:56;;;;;;;2.23;2.00;;;;;;;20.44;58.19;98164.34;5114646;27;42039;-74
2022/08/16 01:56:30;;;;;;;2.10;1.80;;;;;;;20.40;58.67;98160.34;5097841;27;40970;-75
2022/08/16 01:59:00;;;;;;;2.20;2.00;;;;;;;20.39;58.84;98165.91;5097763;27;40640;-75
2022/08/16 02:01:29;;;;;;;2.03;1.87;;;;;;;20.33;58.80;98166.56;5097531;27;41855;-75
2022/08/16 02:03:58;;;;;;;2.23;1.90;;;;;;;20.31;58.75;98163.22;5097662;27;41111;-75
2022/08/16 02:06:26;;;;;;;1.70;1.57;;;;;;;20.27;58.72;98161.91;5096998;27;38976;-75
2022/08/16 02:08:55;;;;;;;1.60;1.50;;;;;;;20.23;59.07;98156.03;5097045;27;40218;-76
2022/08/16 02:11:24;;;;;;;1.60;1.50;;;;;;;20.22;59.46;98167.78;5114193;27;43756;-75
2022/08/16 02:13:54;;;;;;;2.87;1.90;;;;;;;20.12;59.68;98153.72;5113852;27;43288;-75
2022/08/16 02:16:22;;;;;;;1.83;1.73;;;;;;;20.05;59.85;98152.72;5096903;27;39932;-75
2022/08/16 02:18:49;;;;;;;1.97;1.87;;;;;;;20.12;59.52;98172.53;5112965;27;41736;-75
2022/08/16 02:21:18;;;;;;;2.13;1.70;;;;;;;20.09;59.86;98162.94;5113284;27;42761;-75
2022/08/16 02:23:46;;;;;;;1.70;1.60;;;;;;;20.06;59.59;98167.81;5113134;27;42956;-75
2022/08/16 02:26:15;;;;;;;2.37;2.17;;;;;;;20.03;59.68;98171.69;5096432;27;40054;-75
2022/08/16 02:28:43;;;;;;;1.83;1.73;;;;;;;20.00;60.07;98171.22;5113471;27;41885;-75
2022/08/16 02:31:14;;;;;;;1.70;1.60;;;;;;;19.96;59.74;98175.25;5132201;27;42749;-75
2022/08/16 02:33:44;;;;;;;2.83;1.80;;;;;;;19.93;60.42;98173.75;5113304;27;41184;-75
2022/08/16 02:36:19;;;;;;;2.00;1.80;;;;;;;19.92;60.60;98168.53;5096658;27;38924;-75
2022/08/16 02:38:47;;;;;;;1.93;1.83;;;;;;;19.82;60.63;98155.28;5113543;27;42679;-75
2022/08/16 02:41:16;;;;;;;2.40;2.03;;;;;;;19.80;60.48;98156.47;5096502;27;43002;-75
2022/08/16 02:43:44;;;;;;;2.10;1.90;;;;;;;19.73;60.68;98151.78;5096039;27;41232;-75
2022/08/16 02:46:13;;;;;;;2.00;1.80;;;;;;;19.81;61.21;98166.22;5132087;27;40989;-76
2022/08/16 02:48:41;;;;;;;1.83;1.73;;;;;;;19.78;61.00;98162.00;5113456;27;42738;-75
2022/08/16 02:51:10;;;;;;;1.90;1.77;;;;;;;19.77;61.30;98164.91;5096443;27;43226;-76
2022/08/16 02:53:40;;;;;;;2.80;1.80;;;;;;;19.73;61.35;98165.22;5096243;27;41368;-76
2022/08/16 02:56:11;;;;;;;2.97;2.00;;;;;;;19.72;61.07;98162.69;5113463;27;40675;-75
2022/08/16 02:58:40;;;;;;;2.33;2.13;;;;;;;19.70;61.53;98156.66;5096093;27;41113;-76
2022/08/16 03:01:08;;;;;;;1.90;1.80;;;;;;;19.69;62.06;98163.88;5096221;27;42011;-75
2022/08/16 03:03:38;;;;;;;3.00;2.03;;;;;;;19.64;61.93;98154.66;5113233;27;43251;-75
2022/08/16 03:06:07;;;;;;;2.00;1.90;;;;;;;19.63;61.65;98164.56;5096127;27;39046;-76
2022/08/16 03:08:35;;;;;;;1.93;1.60;;;;;;;19.63;61.21;98169.09;5112930;27;41809;-74
2022/08/16 03:11:03;;;;;;;3.40;1.80;;;;;;;19.61;61.45;98161.22;5096174;27;42295;-75
2022/08/16 03:13:31;;;;;;;2.57;1.80;;;;;;;19.58;61.91;98166.06;5096230;27;41343;-74
2022/08/16 03:15:59;;;;;;;2.10;1.73;;;;;;;19.56;61.73;98163.56;5096393;27;39416;-76
2022/08/16 03:18:27;;;;;;;1.87;1.63;;;;;;;19.53;61.91;98161.22;5112885;27;41952;-76
2022/08/16 03:20:58;;;;;;;2.90;1.87;;;;;;;19.52;62.10;98161.41;5113160;27;42784;-75
2022/08/16 03:23:26;;;;;;;2.10;1.90;;;;;;;19.50;61.76;98169.63;5110443;27;42106;-75
2022/08/16 03:25:54;;;;;;;3.47;2.60;;;;;;;19.47;61.41;98159.19;5095931;27;41695;-75
2022/08/16 03:28:22;;;;;;;2.00;1.70;;;;;;;19.46;61.94;98154.81;5095759;27;43500;-75
2022/08/16 03:30:50;;;;;;;1.57;1.47;;;;;;;19.36;61.69;98135.34;5112906;27;43845;-75
2022/08/16 03:33:19;;;;;;;2.40;2.20;;;;;;;19.43;61.62;98154.28;5095558;27;42479;-74
2022/08/16 03:35:58;;;;;;;2.23;2.00;;;;;;;19.21;62.18;98126.28;5111121;27;40716;-75
2022/08/16 03:38:32;;;;;;;1.80;1.70;;;;;;;19.36;62.11;98151.47;5113744;27;41689;-75
2022/08/16 03:41:04;;;;;;;2.90;2.10;;;;;;;19.35;62.00;98161.38;5099316;27;42828;-75
2022/08/16 03:43:33;;;;;;;2.00;1.90;;;;;;;19.35;62.18;98155.16;5116238;27;41536;-75
2022/08/16 03:46:00;;;;;;;2.03;1.90;;;;;;;19.32;62.18;98150.09;5116414;27;39711;-75
2022/08/16 03:48:35;;;;;;;1.80;1.70;;;;;;;19.30;61.75;98154.81;5098608;27;42325;-75
2022/08/16 03:51:07;;;;;;;2.00;1.80;;;;;;;19.28;62.15;98149.63;5113179;27;42797;-75
2022/08/16 03:53:43;;;;;;;2.67;1.90;;;;;;;19.25;62.40;98149.13;5098989;27;42415;-75
2022/08/16 03:56:11;;;;;;;2.00;1.80;;;;;;;19.24;62.50;98168.91;5116487;27;38905;-75
2022/08/16 03:58:39;;;;;;;1.90;1.80;;;;;;;19.23;62.28;98156.50;5116019;27;41872;-76
2022/08/16 04:01:09;;;;;;;1.53;1.43;;;;;;;19.21;62.25;98166.56;5099002;27;43389;-75
2022/08/16 04:03:37;;;;;;;2.00;1.80;;;;;;;19.18;62.28;98167.72;5098908;27;41277;-76
2022/08/16 04:06:06;;;;;;;2.00;1.80;;;;;;;19.17;61.95;98162.50;5116322;27;39863;-76
2022/08/16 04:08:34;;;;;;;2.27;2.07;;;;;;;19.15;61.93;98159.19;5099075;27;40574;-75
2022/08/16 04:11:04;;;;;;;2.57;2.17;;;;;;;19.11;62.90;98168.56;5116526;27;43184;-75
2022/08/16 04:13:33;;;;;;;2.27;1.90;;;;;;;19.10;62.67;98166.88;5099380;27;42654;-75
2022/08/16 04:16:01;;;;;;;2.93;1.97;;;;;;;19.09;62.77;98170.56;5099501;27;38967;-75
2022/08/16 04:18:30;;;;;;;2.17;1.93;;;;;;;19.08;63.13;98175.09;5115980;27;40622;-75
2022/08/16 04:21:00;;;;;;;1.40;1.30;;;;;;;19.00;62.92;98165.22;5116542;27;42804;-75
2022/08/16 04:23:32;;;;;;;3.67;2.20;;;;;;;19.06;62.71;98177.09;5113645;27;43102;-75
2022/08/16 04:26:00;;;;;;;1.73;1.63;;;;;;;19.08;62.84;98185.84;5099476;27;39638;-75
2022/08/16 04:28:30;;;;;;;2.10;2.00;;;;;;;19.00;62.81;98175.94;5099091;27;40393;-75
2022/08/16 04:30:58;;;;;;;2.27;2.07;;;;;;;19.08;63.07;98185.00;5099383;27;42753;-75
2022/08/16 04:33:25;;;;;;;2.50;1.83;;;;;;;19.09;62.91;98197.41;5116311;27;42040;-75
2022/08/16 04:35:56;;;;;;;1.90;1.80;;;;;;;19.09;62.65;98202.78;5098988;27;38990;-75
2022/08/16 04:38:26;;;;;;;2.20;1.63;;;;;;;19.12;62.79;98202.44;5113353;27;41700;-75
2022/08/16 04:40:55;;;;;;;2.27;2.07;;;;;;;19.15;62.48;98202.13;5098986;27;43178;-75
2022/08/16 04:43:24;;;;;;;2.43;2.13;;;;;;;19.17;62.57;98200.09;5098952;27;41587;-76
2022/08/16 04:45:54;;;;;;;4.03;2.50;;;;;;;19.20;62.81;98205.13;5098936;27;39993;-76
2022/08/16 04:48:24;;;;;;;2.23;1.90;;;;;;;19.24;62.13;98203.81;5097507;27;40881;-75
2022/08/16 04:50:58;;;;;;;1.67;1.57;;;;;;;19.28;62.22;98202.47;5112925;27;43838;-75
2022/08/16 04:53:38;;;;;;;1.80;1.70;;;;;;;19.34;62.10;98201.81;5099014;27;41400;-75
2022/08/16 04:56:06;;;;;;;1.90;1.80;;;;;;;19.39;62.22;98207.53;5115977;27;39194;-75
2022/08/16 04:58:34;;;;;;;3.00;2.70;;;;;;;19.36;62.17;98194.44;5115673;27;41756;-75
2022/08/16 05:01:04;;;;;;;1.80;1.70;;;;;;;19.49;62.14;98210.91;5115969;27;42669;-75
2022/08/16 05:03:33;;;;;;;2.97;2.13;;;;;;;19.55;61.81;98210.22;5116003;27;42991;-75
2022/08/16 05:06:00;;;;;;;2.47;2.27;;;;;;;19.62;62.04;98213.94;5098654;27;40848;-76
2022/08/16 05:08:30;;;;;;;2.33;1.73;;;;;;;19.70;61.57;98227.34;5115434;27;41968;-75
2022/08/16 05:11:05;;;;;;;2.90;2.60;;;;;;;19.72;61.48;98219.97;5098896;27;42838;-75
2022/08/16 05:13:36;;;;;;;4.00;2.50;;;;;;;19.76;61.68;98204.34;5098547;27;42250;-76
2022/08/16 05:16:08;;;;;;;3.73;2.20;;;;;;;19.94;61.42;98218.41;5098642;27;39528;-75
2022/08/16 05:18:37;;;;;;;2.30;2.03;;;;;;;20.02;61.01;98228.34;5114106;27;42647;-75
2022/08/16 05:21:05;;;;;;;3.70;2.30;;;;;;;20.12;60.47;98233.53;5115196;27;43725;-76
2022/08/16 05:23:33;;;;;;;2.60;2.40;;;;;;;19.89;60.69;98183.19;5114717;27;43207;-76
2022/08/16 05:26:02;;;;;;;3.17;2.40;;;;;;;20.29;60.51;98233.28;5098242;27;40018;-75
2022/08/16 05:28:30;;;;;;;2.73;2.50;;;;;;;20.37;60.48;98244.09;5098349;27;41683;-75
2022/08/16 05:30:58;;;;;;;2.70;2.50;;;;;;;20.44;60.42;98228.91;5115295;27;42718;-76
2022/08/16 05:33:31;;;;;;;2.47;2.27;;;;;;;20.55;60.19;98241.16;5097868;27;40804;-75
2022/08/16 05:35:59;;;;;;;4.53;2.80;;;;;;;20.64;59.79;98244.66;5115235;27;40012;-75
2022/08/16 05:38:31;;;;;;;3.40;2.47;;;;;;;20.71;59.60;98251.00;5097919;27;43420;-75
2022/08/16 05:41:03;;;;;;;2.57;2.33;;;;;;;20.84;59.00;98245.91;5097886;27;41629;-75
2022/08/16 05:43:38;;;;;;;3.33;2.40;;;;;;;20.96;59.10;98254.44;5112554;27;43323;-75
2022/08/16 05:46:06;;;;;;;4.33;2.57;;;;;;;20.93;58.51;98233.25;5115219;27;39754;-75
2022/08/16 05:48:36;;;;;;;2.93;2.23;;;;;;;21.11;58.48;98248.13;5097618;27;44564;-76
2022/08/16 05:51:08;;;;;;;3.13;2.23;;;;;;;21.26;58.29;98245.56;5111893;27;42699;-76
2022/08/16 05:53:36;;;;;;;3.27;2.27;;;;;;;21.47;57.86;98253.81;5097867;27;41465;-76
2022/08/16 05:56:11;;;;;;;3.70;2.47;;;;;;;21.64;57.26;98246.41;5098140;27;39072;-76
2022/08/16 05:58:42;;;;;;;2.50;2.00;;;;;;;21.76;56.95;98253.06;5097689;27;42305;-76
2022/08/16 06:01:13;;;;;;;3.90;2.53;;;;;;;21.90;56.58;98258.69;5111659;27;43815;-75
2022/08/16 06:03:45;;;;;;;2.83;2.60;;;;;;;21.97;56.59;98256.94;5097395;27;42456;-75
2022/08/16 06:06:21;;;;;;;2.97;2.67;;;;;;;22.04;56.54;98260.59;5097997;27;40967;-75
2022/08/16 06:08:48;;;;;;;3.03;2.43;;;;;;;22.11;56.26;98262.41;5114737;27;42666;-75
2022/08/16 06:11:16;;;;;;;3.87;3.10;;;;;;;22.20;55.93;98276.66;5097625;27;41740;-75
2022/08/16 06:13:51;;;;;;;4.60;2.80;;;;;;;22.06;55.93;98226.22;5097599;27;42577;-76
2022/08/16 06:16:28;;;;;;;3.20;2.87;;;;;;;22.48;55.24;98275.00;5097625;27;39307;-75
2022/08/16 06:18:58;;;;;;;2.70;2.50;;;;;;;22.66;55.15;98276.47;5097213;27;41016;-75
2022/08/16 06:21:26;;;;;;;5.23;2.83;;;;;;;22.92;54.51;98279.56;5097475;27;41857;-75
2022/08/16 06:24:00;;;;;;;2.77;2.57;;;;;;;23.16;53.60;98279.25;5112312;27;43261;-75
2022/08/16 06:26:28;;;;;;;3.33;3.00;;;;;;;23.18;53.45;98279.06;5097592;27;38970;-75
2022/08/16 06:28:56;;;;;;;3.27;2.97;;;;;;;23.26;53.56;98281.63;5114307;27;42791;-76
2022/08/16 06:31:31;;;;;;;3.83;2.80;;;;;;;23.50;53.18;98278.63;5097398;27;43309;-76
2022/08/16 06:34:00;;;;;;;4.10;2.70;;;;;;;23.80;52.49;98282.06;5096921;27;41623;-76
2022/08/16 06:36:33;;;;;;;2.70;2.50;;;;;;;24.04;51.45;98288.91;5111327;27;40991;-76
2022/08/16 06:39:16;;;;;;;2.93;2.67;;;;;;;24.20;51.02;98296.75;5097418;27;40673;-75
2022/08/16 06:42:03;;;;;;;2.70;2.50;;;;;;;24.63;50.40;98294.78;5111248;27;42772;-75
2022/08/16 06:44:51;;;;;;;3.50;2.90;;;;;;;25.18;49.46;98303.03;5113968;27;42226;-76
2022/08/16 06:47:45;;;;;;;3.17;2.87;;;;;;;25.54;48.22;98309.00;5111921;27;40480;-75
2022/08/16 06:50:15;;;;;;;2.73;2.53;;;;;;;25.64;48.39;98314.06;5114028;27;41796;-75
2022/08/16 06:52:46;;;;;;;3.30;3.00;;;;;;;25.62;48.63;98308.84;5097313;27;41668;-75
2022/08/16 06:55:18;;;;;;;3.50;2.70;;;;;;;25.54;48.55;98308.16;5096631;27;41085;-75
2022/08/16 06:57:52;;;;;;;3.63;3.00;;;;;;;25.52;48.73;98316.50;5097331;27;41017;-75
2022/08/16 07:00:22;;;;;;;3.43;3.13;;;;;;;25.38;48.19;98268.69;5113599;27;42836;-75
2022/08/16 07:02:58;;;;;;;5.40;3.13;;;;;;;26.00;47.35;98311.81;5096788;27;41815;-75
2022/08/16 07:05:30;;;;;;;4.43;3.27;;;;;;;26.22;46.94;98311.63;5096724;27;41467;-76
2022/08/16 07:08:10;;;;;;;3.87;3.23;;;;;;;26.22;46.58;98296.16;5096452;27;40514;-76
2022/08/16 07:10:40;;;;;;;3.13;2.90;;;;;;;26.43;46.27;98315.00;5097710;27;41670;-76
2022/08/16 07:13:09;;;;;;;4.10;3.10;;;;;;;26.37;46.63;98307.69;5117316;27;43655;-76
2022/08/16 07:15:40;;;;;;;3.80;3.30;;;;;;;26.44;46.94;98315.84;5100363;27;40897;-75
2022/08/16 07:18:10;;;;;;;3.10;2.90;;;;;;;26.51;46.58;98319.38;5116698;27;40036;-76
2022/08/16 07:20:40;;;;;;;3.63;3.33;;;;;;;26.64;46.48;98321.25;5100037;27;40785;-76
2022/08/16 07:23:08;;;;;;;3.47;3.07;;;;;;;26.69;46.14;98313.31;5099836;27;43120;-76
2022/08/16 07:25:46;;;;;;;3.60;3.30;;;;;;;26.82;46.17;98318.72;5114417;27;42264;-76
2022/08/16 07:28:16;;;;;;;5.40;3.30;;;;;;;27.16;45.26;98321.16;5117156;27;39905;-76
2022/08/16 07:30:45;;;;;;;5.67;3.50;;;;;;;27.64;44.40;98320.75;5100335;27;41958;-76
2022/08/16 07:33:20;;;;;;;3.50;2.97;;;;;;;27.99;43.70;98318.44;5114221;27;43886;-76
2022/08/16 07:35:50;;;;;;;4.17;3.43;;;;;;;28.30;43.16;98324.94;5100127;27;42326;-76
2022/08/16 07:38:20;;;;;;;3.47;3.17;;;;;;;28.48;42.64;98330.44;5099658;27;38848;-76
2022/08/16 07:40:55;;;;;;;3.47;3.17;;;;;;;28.72;41.85;98332.28;5100404;27;40745;-76
2022/08/16 07:43:23;;;;;;;3.63;3.00;;;;;;;28.97;41.45;98339.63;5099572;27;41649;-76
2022/08/16 07:45:52;;;;;;;2.97;2.77;;;;;;;29.19;41.17;98344.41;5099518;27;41839;-76
2022/08/16 07:48:21;;;;;;;5.70;3.60;;;;;;;29.31;40.58;98345.31;5099497;27;41201;-76
2022/08/16 07:50:55;;;;;;;4.07;3.27;;;;;;;29.52;39.92;98348.66;5100165;27;40938;-76
2022/08/16 07:53:23;;;;;;;4.00;2.70;;;;;;;29.55;39.95;98351.75;5116481;27;42773;-76
2022/08/16 07:55:52;;;;;;;3.13;2.83;;;;;;;29.41;39.92;98365.81;5099845;27;41162;-76
2022/08/16 07:58:28;;;;;;;3.73;3.03;;;;;;;29.26;39.96;98350.63;5099609;27;40163;-76
2022/08/16 08:00:56;;;;;;;2.97;2.77;;;;;;;29.32;39.98;98348.88;5099775;27;40641;-76
2022/08/16 08:03:24;;;;;;;3.53;2.97;;;;;;;29.74;39.64;98358.03;5099306;27;43660;-75
2022/08/16 08:05:54;;;;;;;3.30;3.00;;;;;;;30.55;38.40;98360.19;5099371;27;40845;-76
2022/08/16 08:08:21;;;;;;;3.17;2.97;;;;;;;31.51;36.82;98368.97;5099358;27;38903;-76
2022/08/16 08:10:49;;;;;;;4.27;3.30;;;;;;;32.09;35.38;98382.47;5116571;27;42763;-75
2022/08/16 08:13:17;;;;;;;4.23;3.17;;;;;;;32.56;34.89;98374.84;5116372;27;42834;-76
2022/08/16 08:15:46;;;;;;;5.43;3.10;;;;;;;32.90;34.46;98369.34;5099793;27;41765;-76
2022/08/16 08:18:14;;;;;;;4.33;2.80;;;;;;;33.30;33.48;98393.84;5098676;27;38768;-76
2022/08/16 08:20:44;;;;;;;3.90;3.43;;;;;;;33.86;32.78;98393.50;5099470;27;40626;-76
2022/08/16 08:23:15;;;;;;;3.20;3.00;;;;;;;33.80;32.49;98399.19;5097399;27;41972;-76
2022/08/16 08:25:49;;;;;;;4.27;3.10;;;;;;;33.41;32.81;98401.97;5098921;27;42234;-76
2022/08/16 08:28:18;;;;;;;3.07;2.87;;;;;;;33.24;33.46;98395.69;5099526;27;40189;-77
2022/08/16 08:30:48;;;;;;;3.10;2.80;;;;;;;33.10;33.42;98400.69;5116253;27;40932;-76
2022/08/16 08:33:16;;;;;;;3.77;3.30;;;;;;;32.97;33.70;98384.56;5098939;27;44257;-76
2022/08/16 08:35:45;;;;;;;3.17;2.87;;;;;;;32.85;33.49;98383.84;5116156;27;43216;-76
2022/08/16 08:38:15;;;;;;;3.33;2.97;;;;;;;32.84;33.37;98393.16;5098825;27;39811;-76
2022/08/16 08:40:46;;;;;;;3.30;3.10;;;;;;;33.46;33.13;98399.28;5099127;27;43092;-76
2022/08/16 08:43:14;;;;;;;3.53;3.23;;;;;;;34.08;32.01;98409.97;5134307;27;42704;-76
2022/08/16 08:45:46;;;;;;;3.13;2.93;;;;;;;35.22;30.50;98401.38;5112939;27;43292;-74
2022/08/16 08:48:15;;;;;;;4.30;3.27;;;;;;;35.85;29.45;98415.25;5115903;27;39729;-75
2022/08/16 08:50:42;;;;;;;3.73;2.97;;;;;;;35.89;29.20;98406.13;5098770;27;42122;-75
2022/08/16 08:53:10;;;;;;;3.23;2.97;;;;;;;35.74;29.45;98419.84;5098795;27;41666;-74
2022/08/16 08:55:41;;;;;;;3.07;2.87;;;;;;;35.32;29.75;98399.78;5098735;27;42522;-74
2022/08/16 08:58:10;;;;;;;3.60;3.30;;;;;;;34.94;30.24;98409.97;5133958;27;40080;-76
2022/08/16 09:00:56;;;;;;;3.43;3.13;;;;;;;34.47;30.89;98407.09;5115676;27;42391;-75
2022/08/16 09:03:24;;;;;;;3.10;2.90;;;;;;;33.99;31.34;98408.78;5115278;27;43797;-76
2022/08/16 09:05:53;;;;;;;3.30;3.10;;;;;;;33.55;32.03;98391.44;5097575;27;42509;-76
2022/08/16 09:08:23;;;;;;;3.27;2.97;;;;;;;33.40;32.42;98399.47;5114867;27;39984;-75
2022/08/16 09:10:56;;;;;;;3.90;3.60;;;;;;;34.02;31.31;98407.41;5111682;27;42683;-76
2022/08/16 09:13:26;;;;;;;3.07;2.87;;;;;;;33.73;31.84;98406.78;5097497;27;41938;-75
2022/08/16 09:15:55;;;;;;;3.60;3.30;;;;;;;33.26;32.18;98409.19;5097407;27;42324;-75
2022/08/16 09:18:24;;;;;;;3.97;3.27;;;;;;;32.72;32.82;98401.47;5114271;27;41193;-75
2022/08/16 09:20:53;;;;;;;3.37;3.07;;;;;;;32.25;33.55;98394.59;5097575;27;41242;-76
2022/08/16 09:23:21;;;;;;;3.80;3.50;;;;;;;31.81;34.30;98401.63;5097504;27;41827;-76
2022/08/16 09:25:50;;;;;;;3.90;3.40;;;;;;;31.49;34.76;98393.84;5097114;27;41187;-76
2022/08/16 09:28:19;;;;;;;3.60;3.30;;;;;;;31.35;35.29;98395.19;5097484;27;42314;-75
2022/08/16 09:30:58;;;;;;;3.87;3.47;;;;;;;31.30;35.50;98389.59;5097451;27;42258;-76
2022/08/16 09:33:26;;;;;;;4.30;3.23;;;;;;;31.36;35.13;98385.91;5096978;27;43404;-75
2022/08/16 09:35:54;;;;;;;3.27;3.03;;;;;;;32.11;34.83;98392.13;5114530;27;43696;-75
2022/08/16 09:38:23;;;;;;;3.67;3.33;;;;;;;32.93;33.25;98393.53;5114325;27;40765;-75
2022/08/16 09:40:51;;;;;;;4.07;3.23;;;;;;;33.33;32.88;98401.56;5132834;27;42711;-75
2022/08/16 09:43:22;;;;;;;4.00;3.57;;;;;;;33.56;32.10;98398.59;5096871;27;44100;-75
2022/08/16 09:45:49;;;;;;;3.50;3.10;;;;;;;34.00;31.98;98406.84;5111351;27;42545;-76
2022/08/16 09:48:17;;;;;;;3.97;3.57;;;;;;;34.39;31.06;98413.03;5132756;27;40016;-76
2022/08/16 09:50:45;;;;;;;3.53;3.23;;;;;;;34.53;31.20;98417.84;5114278;27;41754;-76
2022/08/16 09:53:16;;;;;;;3.53;3.23;;;;;;;34.74;30.66;98407.06;5132290;27;43543;-76
2022/08/16 09:55:47;;;;;;;6.07;3.37;;;;;;;35.01;29.95;98410.56;5097249;27;41976;-76
2022/08/16 09:58:15;;;;;;;3.77;3.27;;;;;;;35.01;29.93;98431.75;5096837;27;40623;-76
2022/08/16 10:00:44;;;;;;;3.60;3.30;;;;;;;34.72;29.93;98423.81;5097062;27;41699;-76
2022/08/16 10:03:12;;;;;;;3.50;3.20;;;;;;;34.68;30.56;98411.66;5113359;27;43046;-76
2022/08/16 10:05:39;;;;;;;3.17;2.97;;;;;;;34.70;30.56;98415.00;5114008;27;41386;-75
2022/08/16 10:08:09;;;;;;;3.40;3.10;;;;;;;34.76;30.25;98404.88;5096620;27;41433;-76
2022/08/16 10:10:40;;;;;;;3.70;3.20;;;;;;;35.06;30.01;98410.63;5114148;27;42029;-74
2022/08/16 10:13:13;;;;;;;3.47;3.17;;;;;;;35.37;29.44;98408.06;5128861;27;42728;-74
2022/08/16 10:15:43;;;;;;;3.20;2.90;;;;;;;35.55;29.21;98411.22;5096554;27;41180;-75
2022/08/16 10:18:14;;;;;;;3.63;3.37;;;;;;;35.80;28.50;98407.78;5113572;27;40893;-75
2022/08/16 10:20:44;;;;;;;3.30;2.93;;;;;;;35.54;28.65;98404.03;5130081;27;41446;-75
2022/08/16 10:23:14;;;;;;;3.17;2.87;;;;;;;35.34;28.68;98403.13;5114062;27;42799;-75
2022/08/16 10:25:44;;;;;;;3.10;2.90;;;;;;;35.26;29.25;98397.00;5097293;27;41225;-74
2022/08/16 10:28:13;;;;;;;3.53;3.23;;;;;;;35.43;28.88;98401.50;5132751;27;40861;-74
2022/08/16 10:30:42;;;;;;;3.37;3.07;;;;;;;35.60;28.72;98400.22;5132871;27;41520;-73
2022/08/16 10:33:10;;;;;;;3.47;3.27;;;;;;;35.98;28.39;98404.50;5132455;27;42735;-74
2022/08/16 10:35:39;;;;;;;3.83;3.53;;;;;;;36.11;28.11;98399.56;5114510;27;41988;-75
2022/08/16 10:38:07;;;;;;;4.10;3.70;;;;;;;36.42;27.80;98409.59;5114016;27;40263;-73
2022/08/16 10:40:35;;;;;;;3.40;3.10;;;;;;;36.69;27.05;98409.34;5132491;27;41795;-74
2022/08/16 10:43:03;;;;;;;3.53;3.23;;;;;;;37.19;27.01;98404.94;5097151;27;42609;-75
2022/08/16 10:45:33;;;;;;;3.57;3.27;;;;;;;36.95;27.08;98393.63;5131785;27;43258;-75
2022/08/16 10:48:02;;;;;;;4.63;3.90;;;;;;;36.59;27.19;98403.84;5114343;27;40385;-74
2022/08/16 10:50:31;;;;;;;3.60;3.30;;;;;;;36.70;27.20;98411.03;5096917;27;43232;-75
2022/08/16 10:53:05;;;;;;;3.83;3.53;;;;;;;37.46;26.29;98424.78;5113817;27;42691;-75
2022/08/16 10:55:35;;;;;;;3.97;3.60;;;;;;;38.37;25.56;98421.63;5129505;27;42333;-76
2022/08/16 10:58:05;;;;;;;3.80;3.20;;;;;;;38.31;25.06;98419.19;5096911;27;41307;-75
2022/08/16 11:00:34;;;;;;;3.70;3.37;;;;;;;37.77;25.69;98411.69;5132254;27;41841;-74
2022/08/16 11:03:02;;;;;;;5.77;3.73;;;;;;;37.29;25.85;98418.75;5113957;27;42692;-75
2022/08/16 11:05:32;;;;;;;3.30;3.00;;;;;;;36.77;26.40;98405.22;5131982;27;43283;-75
2022/08/16 11:08:02;;;;;;;3.13;2.83;;;;;;;36.40;27.12;98389.75;5132261;27;40855;-75
2022/08/16 11:10:32;;;;;;;2.67;2.47;;;;;;;36.08;27.75;98395.47;5132088;27;42718;-76
2022/08/16 11:13:00;;;;;;;4.77;3.13;;;;;;;35.59;27.93;98393.06;5113779;27;43836;-75
2022/08/16 11:15:28;;;;;;;3.53;3.23;;;;;;;35.06;28.77;98385.84;5132165;27;43362;-74
2022/08/16 11:17:56;;;;;;;3.80;3.17;;;;;;;34.65;29.39;98384.69;5113272;27;39211;-74
2022/08/16 11:20:24;;;;;;;3.37;3.17;;;;;;;34.36;29.71;98384.16;5131961;27;42742;-76
2022/08/16 11:22:52;;;;;;;3.57;3.27;;;;;;;34.20;29.96;98382.31;5113964;27;42794;-74
2022/08/16 11:25:24;;;;;;;3.93;3.53;;;;;;;34.68;29.49;98391.59;5095650;27;42238;-74
2022/08/16 11:27:53;;;;;;;3.63;3.20;;;;;;;34.66;29.76;98391.84;5096637;27;40019;-75
2022/08/16 11:30:22;;;;;;;4.17;3.03;;;;;;;34.58;29.73;98389.59;5131847;27;41791;-75
2022/08/16 11:32:50;;;;;;;3.60;2.83;;;;;;;34.71;29.08;98380.88;5113622;27;43713;-76
2022/08/16 11:35:21;;;;;;;3.80;2.90;;;;;;;35.64;28.08;98395.00;5131902;27;42340;-74
2022/08/16 11:37:54;;;;;;;3.27;2.97;;;;;;;35.73;27.69;98406.34;5129117;27;39927;-74
2022/08/16 11:40:25;;;;;;;4.80;2.97;;;;;;;36.59;27.59;98404.66;5096387;27;43395;-73
2022/08/16 11:42:53;;;;;;;3.80;3.50;;;;;;;37.56;25.68;98418.38;5113678;27;43113;-73
2022/08/16 11:45:21;;;;;;;2.83;2.63;;;;;;;38.72;24.70;98428.88;5131886;27;42348;-75
2022/08/16 11:47:49;;;;;;;3.23;2.93;;;;;;;39.84;23.23;98436.09;5113656;27;40098;-74